This is the latest recevied weather packets stored in our database for station/object YS1AHL-29. If no packets are shown the sender has not sent any weather packets the latest 10 day(s).
| Time | Temp. | Humidity | Pressure | Rain* | Wind** | Luminosity | Snow |
|---|---|---|---|---|---|---|---|
| 1777695080 | 16.67° C | 69% | 1014 hPa | 0 mm | - | - | - |
| 1777694539 | 16.67° C | 68% | 1014 hPa | 0 mm | - | - | - |
| 1777694479 | 16.67° C | 68% | 1014 hPa | 0 mm | - | - | - |
| 1777693939 | 17.22° C | 67% | 1014 hPa | 0 mm | - | - | - |
| 1777693878 | 17.22° C | 67% | 1014 hPa | 0 mm | - | - | - |
| 1777693338 | 17.22° C | 66% | 1014 hPa | 0 mm | - | - | - |
| 1777693278 | 17.22° C | 66% | 1014 hPa | 0 mm | - | - | - |
| 1777692737 | 17.78° C | 65% | 1014 hPa | 0 mm | - | - | - |
| 1777692677 | 17.78° C | 65% | 1014 hPa | 0 mm | - | - | - |
| 1777692137 | 17.22° C | 67% | 1014 hPa | 0 mm | - | - | - |
| 1777692076 | 17.22° C | 67% | 1014 hPa | 0 mm | - | - | - |
| 1777691536 | 18.33° C | 65% | 1014 hPa | 0 mm | - | - | - |
| 1777691476 | 18.33° C | 65% | 1014 hPa | 0 mm | - | - | - |
| 1777690936 | 16.11° C | 77% | 1014 hPa | 0 mm | - | - | - |
| 1777690876 | 16.11° C | 77% | 1014 hPa | 0 mm | - | - | - |
| 1777690335 | 16.11° C | 77% | 1014 hPa | 0 mm | - | - | - |
| 1777690275 | 16.11° C | 77% | 1014 hPa | 0 mm | - | - | - |
| 1777689735 | 15.56° C | 79% | 1014 hPa | 0 mm | - | - | - |
| 1777689674 | 15.56° C | 79% | 1014 hPa | 0 mm | - | - | - |
| 1777689074 | 19.44° C | 58% | 1014 hPa | 0 mm | - | - | - |
| 1777687873 | 20° C | 56% | 1014 hPa | 0 mm | - | - | - |
| 1777674060 | 20.56° C | 63% | 1015 hPa | 0 mm | - | - | - |
| 1777673520 | 22.22° C | 58% | 1015 hPa | 0 mm | - | - | - |
| 1777672919 | 20° C | 68% | 1016 hPa | 0 mm | - | - | - |
| 1777672319 | 19.44° C | 68% | 1016 hPa | 0 mm | - | - | - |
* Rain latest hour (hover to see other rain measurements)
** Current wind speed in m/s (hover to see current wind gust speed)